Time;durP1;ratioP1;P1;durP2;ratioP2;P2;SDS_P1;SDS_P2;PMS_P1;PMS_P2;Temp;Humidity;BMP_temperature;BMP_pressure;BME280_temperature;BME280_humidity;BME280_pressure;Samples;Min_cycle;Max_cycle;Signal;HPM_P1;HPM_P2
2023/01/30 00:01:12;;;;;;;26.38;16.50;;;3.10;99.90;;;;;;4839351;29;20145;-72
2023/01/30 00:03:40;;;;;;;24.77;15.52;;;3.20;99.90;;;;;;4841996;29;20049;-74
2023/01/30 00:06:10;;;;;;;28.90;16.10;;;3.20;99.90;;;;;;4856835;29;20482;-78
2023/01/30 00:08:56;;;;;;;27.40;16.58;;;3.30;99.90;;;;;;4876806;29;20048;-75
2023/01/30 00:11:24;;;;;;;28.30;15.68;;;3.30;99.90;;;;;;4861993;23;20110;-71
2023/01/30 00:13:51;;;;;;;27.27;16.35;;;3.30;99.90;;;;;;4861299;29;20053;-76
2023/01/30 00:16:18;;;;;;;25.90;15.45;;;3.30;99.90;;;;;;4868185;29;20064;-74
2023/01/30 00:18:46;;;;;;;26.90;17.23;;;3.30;99.90;;;;;;4877532;29;20109;-75
2023/01/30 00:21:17;;;;;;;25.90;16.15;;;3.20;99.90;;;;;;4877204;29;20510;-76
2023/01/30 00:23:44;;;;;;;26.60;15.55;;;3.10;99.90;;;;;;4877056;29;20040;-75
2023/01/30 00:26:12;;;;;;;27.90;15.43;;;3.00;99.90;;;;;;4884754;29;20045;-75
2023/01/30 00:28:42;;;;;;;27.38;16.83;;;3.10;99.90;;;;;;4876397;29;20062;-72
2023/01/30 00:31:17;;;;;;;22.38;14.57;;;3.00;99.90;;;;;;4883272;29;20386;-70
2023/01/30 00:33:47;;;;;;;25.52;14.73;;;3.00;99.90;;;;;;4861202;29;20456;-75
2023/01/30 00:36:14;;;;;;;27.23;16.08;;;3.00;99.90;;;;;;4854452;29;20132;-75
2023/01/30 00:38:44;;;;;;;23.70;14.68;;;3.10;99.90;;;;;;4866925;29;20045;-74
2023/01/30 00:41:15;;;;;;;23.60;13.73;;;3.20;99.90;;;;;;4847084;29;20145;-74
2023/01/30 00:49:23;;;;;;;30.30;13.80;;;3.10;99.90;;;;;;4874722;29;20057;-75
2023/01/30 00:51:51;;;;;;;25.13;14.60;;;3.20;99.90;;;;;;4889008;29;20045;-74
2023/01/30 00:54:18;;;;;;;32.55;16.25;;;3.10;99.90;;;;;;4860011;29;20045;-73
2023/01/30 00:56:45;;;;;;;32.85;14.98;;;3.00;99.90;;;;;;4883342;29;20084;-77
2023/01/30 00:59:13;;;;;;;35.05;15.27;;;3.10;99.90;;;;;;4862263;29;20073;-74
2023/01/30 01:01:43;;;;;;;28.17;14.77;;;3.20;99.90;;;;;;4861097;29;20047;-73
2023/01/30 01:04:11;;;;;;;25.80;14.20;;;3.20;99.90;;;;;;4871252;29;20056;-73
2023/01/30 01:06:38;;;;;;;28.38;15.05;;;3.20;99.90;;;;;;4867833;29;20053;-73
2023/01/30 01:09:06;;;;;;;29.48;14.50;;;3.10;99.90;;;;;;4868541;29;20070;-75
2023/01/30 01:11:39;;;;;;;27.48;15.25;;;2.90;99.90;;;;;;4860843;29;20057;-71
2023/01/30 01:14:09;;;;;;;30.77;15.07;;;3.10;99.90;;;;;;4871387;29;20049;-74
2023/01/30 01:16:41;;;;;;;31.02;15.75;;;3.10;99.90;;;;;;4881659;29;20041;-75
2023/01/30 01:19:16;;;;;;;30.85;15.15;;;3.20;99.90;;;;;;4867008;29;20397;-76
2023/01/30 01:21:47;;;;;;;24.77;13.88;;;3.20;99.90;;;;;;4876658;29;20068;-73
2023/01/30 01:24:17;;;;;;;22.00;12.93;;;3.20;99.90;;;;;;4846764;29;20053;-75
2023/01/30 01:26:45;;;;;;;27.95;13.38;;;3.30;99.90;;;;;;4848552;29;20435;-72
2023/01/30 01:29:20;;;;;;;25.85;13.75;;;3.20;99.90;;;;;;4860111;29;20548;-72
2023/01/30 01:31:57;;;;;;;24.88;13.55;;;3.20;99.90;;;;;;4849991;29;20064;-75
2023/01/30 01:34:25;;;;;;;24.58;13.43;;;3.20;99.90;;;;;;4868794;29;20106;-75
2023/01/30 01:36:52;;;;;;;22.55;13.82;;;3.20;99.90;;;;;;4863369;29;20520;-76
2023/01/30 01:41:00;;;;;;;23.60;14.30;;;3.10;99.90;;;;;;4880659;29;20052;-72
2023/01/30 01:42:13;;;;;;;27.27;14.00;;;3.20;99.90;;;;;;4863495;29;20101;-71
2023/01/30 01:45:02;;;;;;;25.23;14.10;;;3.20;99.90;;;;;;4861408;29;20114;-71
2023/01/30 01:47:33;;;;;;;21.73;13.40;;;3.30;99.90;;;;;;4872192;29;20079;-69
2023/01/30 01:50:15;;;;;;;23.77;13.80;;;3.30;99.90;;;;;;4858011;29;20140;-73
2023/01/30 01:52:48;;;;;;;20.98;13.13;;;3.20;99.90;;;;;;4847458;29;20485;-70
2023/01/30 01:55:21;;;;;;;25.17;13.63;;;3.20;99.90;;;;;;4855143;29;20417;-73
2023/01/30 01:58:04;;;;;;;29.63;13.52;;;3.30;99.90;;;;;;4863147;29;20052;-71
2023/01/30 02:00:32;;;;;;;23.63;13.27;;;3.20;99.90;;;;;;4863253;29;20053;-75
2023/01/30 02:03:05;;;;;;;25.58;13.38;;;3.30;99.90;;;;;;4878504;29;20048;-73
2023/01/30 02:05:41;;;;;;;23.02;13.88;;;3.30;99.90;;;;;;4863039;29;20053;-74
2023/01/30 02:08:14;;;;;;;22.90;13.70;;;3.30;99.90;;;;;;4855296;29;20136;-74
2023/01/30 02:11:13;;;;;;;24.77;13.20;;;3.20;99.90;;;;;;4888836;29;20049;-75
2023/01/30 02:13:40;;;;;;;23.52;13.40;;;3.30;99.90;;;;;;4862590;29;20056;-69
2023/01/30 02:16:08;;;;;;;23.05;13.18;;;3.30;99.90;;;;;;4878129;29;20037;-76
2023/01/30 02:18:40;;;;;;;23.13;13.38;;;3.30;99.90;;;;;;4878631;29;20041;-72
2023/01/30 02:21:49;;;;;;;22.45;12.23;;;3.30;99.90;;;;;;4865719;29;20064;-75
2023/01/30 02:24:54;;;;;;;21.10;12.18;;;3.30;99.90;;;;;;4862939;29;20045;-73
2023/01/30 02:27:45;;;;;;;21.67;12.60;;;3.20;99.90;;;;;;4860904;29;20139;-75
2023/01/30 02:30:34;;;;;;;20.50;13.35;;;3.10;99.90;;;;;;4878140;29;20049;-71
2023/01/30 02:33:35;;;;;;;21.52;12.70;;;3.20;99.90;;;;;;4871234;29;20413;-75
2023/01/30 02:36:36;;;;;;;19.13;12.10;;;3.10;99.90;;;;;;4876128;29;20053;-71
2023/01/30 02:39:26;;;;;;;23.52;14.05;;;3.10;99.90;;;;;;4877359;29;20537;-72
2023/01/30 02:42:15;;;;;;;20.63;12.68;;;3.10;99.90;;;;;;4864391;29;20432;-73
2023/01/30 02:44:52;;;;;;;19.85;12.00;;;3.00;99.90;;;;;;4865628;29;20550;-74
2023/01/30 02:47:38;;;;;;;18.92;11.73;;;3.00;99.90;;;;;;4873021;29;20044;-73
2023/01/30 02:50:14;;;;;;;22.35;13.25;;;3.00;99.90;;;;;;4864309;29;20097;-75
2023/01/30 02:52:42;;;;;;;20.50;12.30;;;3.00;99.90;;;;;;4866157;29;20051;-75
2023/01/30 02:55:21;;;;;;;19.63;12.43;;;3.00;99.90;;;;;;4874177;29;20514;-70
2023/01/30 02:57:52;;;;;;;21.80;12.55;;;3.10;99.90;;;;;;4841523;29;20362;-69
2023/01/30 03:00:29;;;;;;;22.50;12.32;;;3.00;99.90;;;;;;4884525;29;20117;-74
2023/01/30 03:03:15;;;;;;;24.10;12.90;;;3.00;99.90;;;;;;4878375;29;20409;-71
2023/01/30 03:05:43;;;;;;;22.60;13.07;;;3.00;99.90;;;;;;4844681;29;20136;-73
2023/01/30 03:08:11;;;;;;;22.95;13.20;;;3.00;99.90;;;;;;4861731;29;20041;-76
2023/01/30 03:11:02;;;;;;;22.85;14.07;;;3.00;99.90;;;;;;4842780;29;20054;-71
2023/01/30 03:14:01;;;;;;;21.42;13.93;;;3.00;99.90;;;;;;4841541;29;20065;-70
2023/01/30 03:16:40;;;;;;;21.35;13.43;;;3.10;99.90;;;;;;4863642;29;20409;-73
2023/01/30 03:19:12;;;;;;;23.73;13.25;;;3.10;99.90;;;;;;4858458;29;20430;-73
2023/01/30 03:21:43;;;;;;;26.38;13.38;;;3.00;99.90;;;;;;4855343;29;20046;-69
2023/01/30 03:24:12;;;;;;;22.58;14.32;;;3.10;99.90;;;;;;4835063;29;20061;-69
2023/01/30 03:27:07;;;;;;;19.90;13.32;;;3.00;99.90;;;;;;4855825;29;20073;-74
2023/01/30 03:29:38;;;;;;;25.10;14.48;;;3.00;99.90;;;;;;4847955;29;20057;-75
2023/01/30 03:32:06;;;;;;;21.98;13.32;;;3.00;99.90;;;;;;4859019;29;20551;-73
2023/01/30 03:34:36;;;;;;;27.90;15.80;;;3.00;99.90;;;;;;4853566;29;20064;-70
2023/01/30 03:37:04;;;;;;;24.80;13.95;;;3.10;99.90;;;;;;4848649;29;20041;-74
2023/01/30 03:39:34;;;;;;;23.35;14.48;;;3.00;99.90;;;;;;4862886;29;20406;-77
2023/01/30 03:42:01;;;;;;;26.58;15.30;;;3.00;99.90;;;;;;4832227;29;20042;-75
2023/01/30 03:44:31;;;;;;;21.75;13.25;;;3.00;99.90;;;;;;4858430;29;20045;-71
2023/01/30 03:47:02;;;;;;;23.42;14.13;;;3.00;99.90;;;;;;4851764;29;20148;-71
2023/01/30 03:49:30;;;;;;;21.63;13.63;;;3.00;99.90;;;;;;4844511;29;20104;-71
2023/01/30 03:51:57;;;;;;;21.98;13.98;;;3.00;99.90;;;;;;4858005;29;20053;-71
2023/01/30 03:54:27;;;;;;;23.95;14.38;;;3.00;99.90;;;;;;4827074;29;20038;-72
2023/01/30 03:57:00;;;;;;;21.75;14.48;;;3.00;99.90;;;;;;4871725;29;20049;-73
2023/01/30 03:59:33;;;;;;;26.95;13.68;;;3.00;99.90;;;;;;4855691;29;20057;-71
2023/01/30 04:02:12;;;;;;;21.58;13.07;;;3.00;99.90;;;;;;4853441;29;20053;-70
2023/01/30 04:04:41;;;;;;;26.85;14.68;;;3.00;99.90;;;;;;4875556;29;20361;-78
2023/01/30 04:07:14;;;;;;;20.33;13.40;;;2.90;99.90;;;;;;4858132;29;20052;-76
2023/01/30 04:09:44;;;;;;;27.15;13.32;;;2.90;99.90;;;;;;4845133;29;20129;-72
2023/01/30 04:12:13;;;;;;;23.45;12.82;;;2.90;99.90;;;;;;4875789;29;20562;-73
2023/01/30 04:14:42;;;;;;;23.13;13.18;;;3.00;99.90;;;;;;4860847;29;20064;-73
2023/01/30 04:17:10;;;;;;;18.73;11.85;;;3.00;99.90;;;;;;4845238;29;21413;-78
2023/01/30 04:19:37;;;;;;;21.95;14.02;;;2.80;99.90;;;;;;4870643;29;20045;-72
2023/01/30 04:22:04;;;;;;;25.60;12.98;;;2.90;99.90;;;;;;4860450;29;20097;-75
2023/01/30 04:24:34;;;;;;;20.98;13.95;;;2.80;99.90;;;;;;4877261;29;20068;-72
2023/01/30 04:27:01;;;;;;;22.90;12.37;;;2.80;99.90;;;;;;4862335;29;20508;-73
2023/01/30 04:29:32;;;;;;;19.63;12.98;;;2.90;99.90;;;;;;4860923;29;20042;-77
2023/01/30 04:31:59;;;;;;;21.13;12.85;;;3.00;99.90;;;;;;4876645;29;20049;-74
2023/01/30 04:34:29;;;;;;;21.80;13.18;;;2.90;99.90;;;;;;4875943;29;20048;-71
2023/01/30 04:36:56;;;;;;;17.13;11.40;;;2.90;99.90;;;;;;4860217;29;20053;-74
2023/01/30 04:39:23;;;;;;;19.42;11.95;;;2.90;99.90;;;;;;4866133;29;20106;-71
2023/01/30 04:41:51;;;;;;;20.98;12.95;;;3.00;99.90;;;;;;4853056;29;20414;-76
2023/01/30 04:44:18;;;;;;;20.67;12.73;;;2.90;99.90;;;;;;4852846;29;20041;-76
2023/01/30 04:46:45;;;;;;;16.55;11.88;;;2.80;99.90;;;;;;4860491;29;20052;-76
2023/01/30 04:49:13;;;;;;;18.40;12.25;;;2.90;99.90;;;;;;4860077;29;20049;-76
2023/01/30 04:51:45;;;;;;;16.75;12.13;;;2.90;99.90;;;;;;4878951;29;20041;-74
2023/01/30 04:54:17;;;;;;;19.35;12.05;;;3.10;99.90;;;;;;4848072;29;20088;-71
2023/01/30 04:56:51;;;;;;;21.42;13.27;;;3.00;99.90;;;;;;4856762;29;20050;-73
2023/01/30 04:59:18;;;;;;;23.60;13.20;;;2.90;99.90;;;;;;4872120;29;20044;-70
2023/01/30 05:01:45;;;;;;;17.50;11.77;;;2.90;99.90;;;;;;4865197;29;20051;-75
2023/01/30 05:04:12;;;;;;;19.00;11.15;;;3.00;99.90;;;;;;4881405;29;20037;-76
2023/01/30 05:06:42;;;;;;;19.00;12.00;;;3.00;99.90;;;;;;4880518;29;20076;-74
2023/01/30 05:09:15;;;;;;;16.23;11.10;;;3.00;99.90;;;;;;4848830;29;20057;-71
2023/01/30 05:11:42;;;;;;;20.17;11.82;;;3.10;99.90;;;;;;4875389;29;20093;-74
2023/01/30 05:14:10;;;;;;;15.25;10.63;;;3.10;99.90;;;;;;4864207;29;20049;-72
2023/01/30 05:16:38;;;;;;;21.75;11.88;;;3.00;99.90;;;;;;4853116;29;20069;-76
2023/01/30 05:19:11;;;;;;;18.67;10.98;;;3.10;99.90;;;;;;4880328;29;20045;-74
2023/01/30 05:21:38;;;;;;;18.83;11.80;;;3.10;99.90;;;;;;4866017;29;20665;-72
2023/01/30 05:24:05;;;;;;;18.35;12.27;;;3.10;99.90;;;;;;4861931;29;20128;-74
2023/01/30 05:26:33;;;;;;;18.55;11.13;;;3.10;99.90;;;;;;4881801;29;20084;-75
2023/01/30 05:29:01;;;;;;;17.77;11.95;;;3.00;99.90;;;;;;4881644;29;20037;-75
2023/01/30 05:31:34;;;;;;;17.48;11.20;;;2.80;99.90;;;;;;4860108;29;20467;-75
2023/01/30 05:34:04;;;;;;;;;;;2.80;99.90;;;;;;4847263;29;20060;-77
2023/01/30 05:36:31;;;;;;;19.48;11.13;;;2.90;99.90;;;;;;4862630;29;19931;-77
2023/01/30 05:39:00;;;;;;;17.90;11.48;;;2.90;99.90;;;;;;4871069;29;20057;-76
2023/01/30 05:41:30;;;;;;;15.50;11.48;;;3.00;99.90;;;;;;4880319;29;20053;-74
2023/01/30 05:44:06;;;;;;;19.67;11.90;;;3.00;99.90;;;;;;4852042;29;20116;-75
2023/01/30 05:46:39;;;;;;;18.85;11.80;;;3.10;99.90;;;;;;4834740;29;20526;-75
2023/01/30 05:49:06;;;;;;;15.10;10.85;;;3.00;99.90;;;;;;4861163;29;20485;-74
2023/01/30 05:51:36;;;;;;;17.20;11.00;;;3.00;99.90;;;;;;4873384;29;20033;-77
2023/01/30 05:54:07;;;;;;;36.10;21.30;;;3.00;99.90;;;;;;4862609;29;20080;-72
2023/01/30 05:56:39;;;;;;;88.22;45.65;;;3.00;99.90;;;;;;4863086;29;20405;-72
2023/01/30 05:59:10;;;;;;;52.10;31.10;;;3.10;99.90;;;;;;4865954;29;20124;-72
2023/01/30 06:01:37;;;;;;;25.58;17.48;;;3.20;99.90;;;;;;4878121;29;20442;-73
2023/01/30 06:04:07;;;;;;;23.67;13.43;;;3.10;99.90;;;;;;4863995;29;20045;-72
2023/01/30 06:06:35;;;;;;;19.15;11.82;;;3.10;99.90;;;;;;4863549;29;20052;-74
2023/01/30 06:09:04;;;;;;;21.10;11.50;;;3.00;99.90;;;;;;4875678;29;20393;-71
2023/01/30 06:11:34;;;;;;;19.23;12.65;;;3.00;99.90;;;;;;4864014;29;20049;-72
2023/01/30 06:14:02;;;;;;;21.40;12.37;;;3.00;99.90;;;;;;4876512;29;20084;-74
2023/01/30 06:16:32;;;;;;;;;;;2.90;99.90;;;;;;4875547;29;20305;-73
2023/01/30 06:19:02;;;;;;;52.05;30.27;;;3.00;99.90;;;;;;4877212;29;19924;-70
2023/01/30 06:21:35;;;;;;;195.57;86.18;;;3.10;99.90;;;;;;4867756;29;20045;-73
2023/01/30 06:24:03;;;;;;;92.75;46.67;;;3.10;99.90;;;;;;4853699;29;20052;-73
2023/01/30 06:26:30;;;;;;;150.73;72.35;;;3.20;99.90;;;;;;4860111;29;20517;-73
2023/01/30 06:28:57;;;;;;;22.98;17.88;;;3.20;99.90;;;;;;4870121;29;20084;-74
2023/01/30 06:31:25;;;;;;;18.77;13.60;;;3.10;99.90;;;;;;4854153;29;20363;-73
2023/01/30 06:33:52;;;;;;;17.52;11.93;;;3.10;99.90;;;;;;4860925;29;20068;-72
2023/01/30 06:36:24;;;;;;;18.35;11.85;;;3.00;99.90;;;;;;4876324;29;20051;-72
2023/01/30 06:39:00;;;;;;;19.45;12.43;;;3.00;99.90;;;;;;4861041;29;20045;-73
2023/01/30 06:41:27;;;;;;;21.63;12.80;;;2.90;99.90;;;;;;4860236;29;20135;-71
2023/01/30 06:43:57;;;;;;;22.40;12.57;;;3.10;99.90;;;;;;4859385;29;20105;-72
2023/01/30 06:46:24;;;;;;;18.25;11.65;;;3.10;99.90;;;;;;4858501;29;20044;-71
2023/01/30 06:48:51;;;;;;;20.58;12.48;;;3.10;99.90;;;;;;4874734;29;20190;-71
2023/01/30 06:51:23;;;;;;;21.30;12.60;;;3.10;99.90;;;;;;4859155;29;20068;-73
2023/01/30 06:53:51;;;;;;;21.77;12.90;;;3.10;99.90;;;;;;4871289;29;20052;-73
2023/01/30 06:56:21;;;;;;;;;;;3.00;99.90;;;;;;4858005;29;20184;-73
2023/01/30 06:58:53;;;;;;;19.08;12.55;;;3.00;99.90;;;;;;4881585;29;19928;-71
2023/01/30 07:01:21;;;;;;;20.05;12.52;;;2.90;99.90;;;;;;4851438;29;20515;-74
2023/01/30 07:03:51;;;;;;;26.35;13.93;;;3.00;99.90;;;;;;4872646;29;20044;-74
2023/01/30 07:06:18;;;;;;;;;;;3.00;99.90;;;;;;4895172;29;20119;-72
2023/01/30 07:08:46;;;;;;;62.85;30.67;;;3.00;99.90;;;;;;4879495;29;20393;-73
2023/01/30 07:11:13;;;;;;;39.03;20.73;;;3.30;99.90;;;;;;4876551;29;20454;-76
2023/01/30 07:13:42;;;;;;;50.50;27.35;;;3.60;99.90;;;;;;4861977;29;20133;-75
2023/01/30 07:16:11;;;;;;;23.98;15.45;;;3.70;99.90;;;;;;4852996;29;20057;-72
2023/01/30 07:18:38;;;;;;;23.15;14.68;;;3.50;99.90;;;;;;4876759;29;20461;-75
2023/01/30 07:21:06;;;;;;;19.52;13.35;;;3.30;99.90;;;;;;4861408;29;20048;-73
2023/01/30 07:23:43;;;;;;;19.52;12.45;;;3.20;99.90;;;;;;4887630;29;20041;-73
2023/01/30 07:26:16;;;;;;;18.13;12.30;;;3.20;99.90;;;;;;4877288;29;20080;-72
2023/01/30 07:28:43;;;;;;;23.75;12.98;;;3.10;99.90;;;;;;4877318;29;20047;-76
2023/01/30 07:31:10;;;;;;;18.67;12.10;;;3.10;99.90;;;;;;4877920;29;20078;-73
2023/01/30 07:33:43;;;;;;;;;;;3.20;99.90;;;;;;4859472;29;20541;-74
2023/01/30 07:36:11;;;;;;;20.27;11.98;;;3.10;99.90;;;;;;4860016;29;19963;-73
2023/01/30 07:38:38;;;;;;;20.40;12.00;;;3.20;99.90;;;;;;4859752;29;20056;-74
2023/01/30 07:41:06;;;;;;;21.77;13.27;;;3.20;99.90;;;;;;4870741;29;20100;-72
2023/01/30 07:43:35;;;;;;;24.33;14.03;;;3.20;99.90;;;;;;4859687;29;20040;-73
2023/01/30 07:46:08;;;;;;;19.92;12.13;;;3.30;99.90;;;;;;4859141;29;20653;-72
2023/01/30 07:48:37;;;;;;;21.08;12.82;;;3.20;99.90;;;;;;4859146;29;20111;-72
2023/01/30 07:51:05;;;;;;;20.85;12.32;;;3.20;99.90;;;;;;4877137;29;20037;-74
2023/01/30 07:53:40;;;;;;;23.33;13.43;;;3.20;99.90;;;;;;4861911;29;20053;-75
2023/01/30 07:56:09;;;;;;;24.35;13.10;;;3.20;99.90;;;;;;4846424;29;20280;-74
2023/01/30 07:58:37;;;;;;;22.00;12.32;;;3.20;99.90;;;;;;4877608;29;20463;-73
2023/01/30 08:01:05;;;;;;;22.38;13.50;;;3.20;99.90;;;;;;4877333;29;20048;-74
2023/01/30 08:03:32;;;;;;;23.55;12.88;;;3.20;99.90;;;;;;4845794;29;20144;-74
2023/01/30 08:05:59;;;;;;;19.40;13.00;;;3.30;99.90;;;;;;4898310;23;20080;-74
2023/01/30 08:08:28;;;;;;;24.67;13.35;;;3.30;99.90;;;;;;4880273;29;20045;-75
2023/01/30 08:10:55;;;;;;;21.17;13.25;;;3.30;99.90;;;;;;4880138;29;20444;-73
2023/01/30 08:13:24;;;;;;;26.05;12.45;;;3.30;99.90;;;;;;4896431;29;20048;-72
2023/01/30 08:16:02;;;;;;;21.33;13.63;;;3.30;99.90;;;;;;4875416;29;20072;-71
2023/01/30 08:18:30;;;;;;;24.42;14.80;;;3.40;99.90;;;;;;4893070;29;20056;-71
2023/01/30 08:20:59;;;;;;;22.15;13.45;;;3.50;99.90;;;;;;4895355;29;20308;-73
2023/01/30 08:23:27;;;;;;;26.50;13.40;;;3.50;99.90;;;;;;4877983;29;20045;-73
2023/01/30 08:26:00;;;;;;;22.20;13.43;;;3.40;99.90;;;;;;4864916;29;20462;-72
2023/01/30 08:28:28;;;;;;;23.98;14.60;;;3.30;99.90;;;;;;4878901;29;20040;-75
2023/01/30 08:30:56;;;;;;;21.10;13.10;;;3.40;99.90;;;;;;4879591;29;20128;-72
2023/01/30 08:33:24;;;;;;;26.70;14.90;;;3.40;99.90;;;;;;4865552;29;20108;-73
2023/01/30 08:35:51;;;;;;;21.42;13.77;;;3.40;99.90;;;;;;4857980;29;20059;-72
2023/01/30 08:38:19;;;;;;;25.30;15.85;;;3.30;99.90;;;;;;4867559;29;20049;-73
2023/01/30 08:40:56;;;;;;;27.42;14.77;;;3.30;99.90;;;;;;4884580;29;20052;-72
2023/01/30 08:43:24;;;;;;;21.52;13.60;;;3.30;99.90;;;;;;4874024;29;20052;-74
2023/01/30 08:45:57;;;;;;;23.50;13.95;;;3.40;99.90;;;;;;4883041;29;20388;-72
2023/01/30 08:48:25;;;;;;;21.95;13.38;;;3.40;99.90;;;;;;4898594;29;20378;-74
2023/01/30 08:50:57;;;;;;;24.10;13.95;;;3.50;99.90;;;;;;4897287;29;20073;-74
2023/01/30 08:53:24;;;;;;;23.38;14.70;;;3.50;99.90;;;;;;4899503;29;20488;-75
2023/01/30 08:55:52;;;;;;;20.98;13.48;;;3.50;99.90;;;;;;4899311;29;20060;-76
2023/01/30 08:58:24;;;;;;;23.33;12.98;;;3.50;99.90;;;;;;4898810;29;20135;-75
2023/01/30 09:00:52;;;;;;;22.05;13.82;;;3.50;99.90;;;;;;4891396;29;20052;-74
2023/01/30 09:03:19;;;;;;;24.40;13.38;;;3.40;99.90;;;;;;4884644;29;20143;-75
2023/01/30 09:05:54;;;;;;;23.77;13.25;;;3.30;99.90;;;;;;4882001;29;20056;-71
2023/01/30 09:08:22;;;;;;;20.85;12.50;;;3.40;99.90;;;;;;4882702;29;20109;-72
2023/01/30 09:10:52;;;;;;;25.15;14.52;;;3.40;99.90;;;;;;4885234;29;20435;-75
2023/01/30 09:13:19;;;;;;;24.75;14.10;;;3.40;99.90;;;;;;4883076;29;20052;-71
2023/01/30 09:15:49;;;;;;;23.88;12.55;;;3.50;99.90;;;;;;4855394;23;20049;-73
2023/01/30 09:18:16;;;;;;;26.35;15.13;;;3.50;99.90;;;;;;4845688;29;20427;-75
2023/01/30 09:20:48;;;;;;;24.20;13.07;;;3.50;99.90;;;;;;4845532;29;20038;-72
2023/01/30 09:23:17;;;;;;;24.50;13.27;;;3.50;99.90;;;;;;4845840;29;20375;-73
2023/01/30 09:25:45;;;;;;;23.45;12.73;;;3.50;99.90;;;;;;4844538;29;20045;-73
2023/01/30 09:28:13;;;;;;;23.55;12.35;;;3.50;99.90;;;;;;4837513;29;20058;-75
2023/01/30 09:30:40;;;;;;;22.25;12.10;;;3.40;99.90;;;;;;4860659;29;20042;-74
2023/01/30 09:33:07;;;;;;;18.35;12.18;;;3.50;99.90;;;;;;4861613;29;20102;-72
2023/01/30 09:35:35;;;;;;;21.75;12.65;;;3.60;99.90;;;;;;4846049;29;20399;-75
2023/01/30 09:38:09;;;;;;;17.58;11.63;;;3.60;99.90;;;;;;4830415;29;20132;-76
2023/01/30 09:41:01;;;;;;;18.50;11.43;;;3.60;99.90;;;;;;4862145;29;20080;-75
2023/01/30 09:43:33;;;;;;;19.65;12.32;;;3.60;99.90;;;;;;4829146;29;20136;-71
2023/01/30 09:46:10;;;;;;;20.55;12.57;;;3.60;99.90;;;;;;4828628;29;20045;-73
2023/01/30 09:48:53;;;;;;;20.98;13.60;;;3.60;99.90;;;;;;4844035;29;20144;-71
2023/01/30 09:51:43;;;;;;;20.50;12.68;;;3.60;99.90;;;;;;4836534;29;20148;-74
2023/01/30 09:54:25;;;;;;;19.95;12.52;;;3.50;99.90;;;;;;4844545;29;20057;-74
2023/01/30 09:57:00;;;;;;;19.33;11.63;;;3.60;99.90;;;;;;4861362;29;20475;-76
2023/01/30 09:59:47;;;;;;;15.52;10.68;;;3.60;99.90;;;;;;4834843;29;20041;-74
2023/01/30 10:02:17;;;;;;;21.98;11.80;;;3.60;99.90;;;;;;4860166;29;20660;-72
2023/01/30 10:04:46;;;;;;;21.13;12.30;;;3.60;99.90;;;;;;4851550;29;20041;-74
2023/01/30 10:07:45;;;;;;;19.17;12.00;;;3.60;99.90;;;;;;4844588;29;20037;-74
2023/01/30 10:10:42;;;;;;;20.90;12.95;;;3.70;99.90;;;;;;4829538;29;20087;-72
2023/01/30 10:13:13;;;;;;;17.85;11.25;;;3.80;99.90;;;;;;4844855;29;20122;-74
2023/01/30 10:15:59;;;;;;;18.10;11.23;;;3.90;99.90;;;;;;4859640;29;20067;-75
2023/01/30 10:18:38;;;;;;;15.90;10.85;;;4.00;99.90;;;;;;4842133;29;20132;-72
2023/01/30 10:21:30;;;;;;;18.27;11.30;;;4.10;99.90;;;;;;4844994;29;20042;-72
2023/01/30 10:24:06;;;;;;;17.65;11.30;;;4.10;99.90;;;;;;4818663;24;20072;-72
2023/01/30 10:26:34;;;;;;;22.90;11.68;;;4.00;99.90;;;;;;4871769;29;20048;-71
2023/01/30 10:29:04;;;;;;;18.13;10.90;;;4.00;99.90;;;;;;4856148;29;20041;-72
2023/01/30 10:31:57;;;;;;;19.83;10.75;;;4.00;99.90;;;;;;4870506;29;20045;-74
2023/01/30 10:34:31;;;;;;;18.70;10.82;;;4.00;99.90;;;;;;4844357;29;20101;-73
2023/01/30 10:37:16;;;;;;;17.42;11.35;;;3.90;99.90;;;;;;4855791;29;20402;-74
2023/01/30 10:40:22;;;;;;;14.32;9.95;;;4.00;99.90;;;;;;4859367;29;20041;-73
2023/01/30 10:43:13;;;;;;;19.10;11.20;;;4.00;99.90;;;;;;4847676;29;20140;-76
2023/01/30 10:46:03;;;;;;;18.77;11.32;;;3.90;99.90;;;;;;4862443;29;20045;-74
2023/01/30 10:49:05;;;;;;;17.08;10.60;;;3.90;99.90;;;;;;4857593;29;20045;-74
2023/01/30 10:51:52;;;;;;;16.77;9.80;;;4.00;99.90;;;;;;4838265;29;20049;-75
2023/01/30 10:54:41;;;;;;;15.85;9.98;;;4.00;99.90;;;;;;4860074;29;20045;-74
2023/01/30 10:57:37;;;;;;;15.23;10.27;;;4.00;99.90;;;;;;4862005;29;20588;-73
2023/01/30 11:00:35;;;;;;;18.17;10.88;;;4.20;99.90;;;;;;4863029;29;20048;-72
2023/01/30 11:03:13;;;;;;;18.70;10.43;;;4.10;99.90;;;;;;4857713;29;20060;-73
2023/01/30 11:06:00;;;;;;;16.63;11.23;;;4.20;99.90;;;;;;4845710;24;20057;-73
2023/01/30 11:08:35;;;;;;;18.37;11.10;;;4.10;99.90;;;;;;4844799;29;20041;-76
2023/01/30 11:11:39;;;;;;;16.88;11.32;;;4.10;99.90;;;;;;4860084;29;20041;-71
2023/01/30 11:14:09;;;;;;;18.10;10.50;;;4.10;99.90;;;;;;4878728;29;20062;-73
2023/01/30 11:16:47;;;;;;;16.33;10.63;;;4.10;99.90;;;;;;4843229;29;20050;-77
2023/01/30 11:19:17;;;;;;;19.77;11.55;;;4.10;99.90;;;;;;4855450;29;20409;-72
2023/01/30 11:21:51;;;;;;;21.38;11.32;;;4.10;99.90;;;;;;4858703;29;20053;-73
2023/01/30 11:24:42;;;;;;;19.17;11.18;;;4.20;99.90;;;;;;4864806;29;20049;-74
2023/01/30 11:27:31;;;;;;;20.55;12.65;;;4.30;99.90;;;;;;4844240;29;20058;-75
2023/01/30 11:30:19;;;;;;;19.75;11.73;;;4.30;99.90;;;;;;4858044;29;20053;-73
2023/01/30 11:32:50;;;;;;;18.00;11.15;;;4.40;99.90;;;;;;4845444;29;20471;-71
2023/01/30 11:35:27;;;;;;;20.50;11.55;;;4.40;99.90;;;;;;4826619;29;20446;-72
2023/01/30 11:38:27;;;;;;;29.05;15.45;;;4.40;99.90;;;;;;4841785;29;20057;-71
2023/01/30 11:41:09;;;;;;;28.20;16.55;;;4.50;99.90;;;;;;4855454;29;20041;-74
2023/01/30 11:43:40;;;;;;;21.17;13.73;;;4.80;99.90;;;;;;4828387;29;20072;-71
2023/01/30 11:46:09;;;;;;;17.88;12.18;;;4.70;99.90;;;;;;4811175;29;20386;-71
2023/01/30 11:48:54;;;;;;;17.67;11.50;;;4.50;99.90;;;;;;4856595;29;20041;-74
2023/01/30 11:51:46;;;;;;;19.13;11.85;;;4.50;99.90;;;;;;4852588;29;20423;-70
2023/01/30 11:54:31;;;;;;;16.88;11.43;;;4.50;99.90;;;;;;4842399;29;20144;-73
2023/01/30 11:57:03;;;;;;;22.70;11.95;;;4.40;99.90;;;;;;4828349;29;20056;-73
2023/01/30 11:59:45;;;;;;;21.10;12.23;;;4.50;99.90;;;;;;4846120;29;20053;-72
2023/01/30 12:02:15;;;;;;;19.23;12.77;;;4.50;99.90;;;;;;4849532;29;20144;-70
2023/01/30 12:04:44;;;;;;;21.73;12.25;;;4.50;99.90;;;;;;4860787;29;20421;-74
2023/01/30 12:07:31;;;;;;;24.00;12.88;;;4.40;99.90;;;;;;4875150;29;20076;-71
2023/01/30 12:10:00;;;;;;;24.67;13.15;;;4.50;99.90;;;;;;4860209;29;20049;-72
2023/01/30 12:12:47;;;;;;;21.75;12.90;;;4.60;99.90;;;;;;4837534;29;20053;-74
2023/01/30 12:15:18;;;;;;;19.58;12.50;;;4.70;99.90;;;;;;4873144;29;20044;-74
2023/01/30 12:17:51;;;;;;;24.20;12.00;;;4.70;99.90;;;;;;4845856;29;20067;-74
2023/01/30 12:20:37;;;;;;;20.05;12.65;;;4.70;99.90;;;;;;4845882;29;20053;-74
2023/01/30 12:23:16;;;;;;;22.95;12.50;;;4.50;99.90;;;;;;4860733;29;20056;-74
2023/01/30 12:26:04;;;;;;;20.52;12.57;;;4.50;99.90;;;;;;4859832;29;20045;-74
2023/01/30 12:28:53;;;;;;;23.85;12.85;;;4.60;99.90;;;;;;4887660;23;20061;-72
2023/01/30 12:31:36;;;;;;;22.60;12.48;;;4.80;99.90;;;;;;4873152;29;20049;-74
2023/01/30 12:34:08;;;;;;;20.58;11.82;;;4.80;99.90;;;;;;4856670;29;20506;-71
2023/01/30 12:36:56;;;;;;;22.60;13.05;;;4.90;99.90;;;;;;4858719;29;20054;-72
2023/01/30 12:39:52;;;;;;;19.60;11.60;;;5.00;99.90;;;;;;4859618;29;21143;-73
2023/01/30 12:42:40;;;;;;;17.75;11.48;;;5.10;99.90;;;;;;4857893;29;20133;-73
2023/01/30 12:45:10;;;;;;;19.55;12.15;;;5.10;99.80;;;;;;4876601;29;20037;-73
2023/01/30 12:47:56;;;;;;;20.80;11.43;;;5.10;99.50;;;;;;4888396;23;20390;-74
2023/01/30 12:50:37;;;;;;;20.80;12.55;;;5.00;99.50;;;;;;4892075;29;20040;-73
2023/01/30 12:53:50;;;;;;;20.85;11.60;;;4.80;99.60;;;;;;4880052;29;20049;-71
2023/01/30 12:56:39;;;;;;;31.40;11.60;;;4.90;99.90;;;;;;4907426;29;20037;-72
2023/01/30 12:59:20;;;;;;;19.85;11.57;;;4.90;99.40;;;;;;4897743;29;20101;-75
2023/01/30 13:02:27;;;;;;;18.75;11.98;;;5.00;99.40;;;;;;4891686;29;20053;-72
2023/01/30 13:05:09;;;;;;;19.40;11.57;;;5.00;99.30;;;;;;4873766;29;20048;-72
2023/01/30 13:07:58;;;;;;;21.42;12.40;;;5.10;99.30;;;;;;4873675;29;20045;-70
2023/01/30 13:10:25;;;;;;;20.30;12.32;;;5.20;99.60;;;;;;4871807;29;20104;-72
2023/01/30 13:13:34;;;;;;;22.77;12.68;;;5.20;99.50;;;;;;4894200;29;20055;-72
2023/01/30 13:16:35;;;;;;;20.77;12.05;;;5.20;98.90;;;;;;4902900;29;20425;-71
2023/01/30 13:19:11;;;;;;;21.38;12.52;;;5.20;98.60;;;;;;4874579;29;20055;-73
2023/01/30 13:25:20;;;;;;;25.05;12.80;;;5.30;98.50;;;;;;4850247;29;20053;-73